createdAt,value
2024-04-16T00:00:16.428Z,21.5
2024-04-16T00:05:23.537Z,21.5
2024-04-16T00:10:19.029Z,21.5
2024-04-16T00:15:14.111Z,21.4
2024-04-16T00:20:20.237Z,21.4
2024-04-16T00:25:16.593Z,21.4
2024-04-16T00:30:16.560Z,21.4
2024-04-16T00:35:13.745Z,21.4
2024-04-16T00:40:14.414Z,21.3
2024-04-16T00:45:20.676Z,21.3
2024-04-16T00:50:18.531Z,21.3
2024-04-16T00:55:20.935Z,21.3
2024-04-16T01:00:22.184Z,21.3
2024-04-16T01:05:14.608Z,21.3
2024-04-16T01:10:17.128Z,21.2
2024-04-16T01:15:14.148Z,21.2
2024-04-16T01:20:16.600Z,21.2
2024-04-16T01:25:16.736Z,21.2
2024-04-16T01:30:17.907Z,21.2
2024-04-16T01:35:13.786Z,21.2
2024-04-16T01:40:18.402Z,21.2
2024-04-16T01:45:21.324Z,21.1
2024-04-16T01:50:18.236Z,21.1
2024-04-16T01:55:16.649Z,21.1
2024-04-16T02:00:17.863Z,21.1
2024-04-16T02:05:18.353Z,21.1
2024-04-16T02:10:20.688Z,21
2024-04-16T02:15:17.688Z,21
2024-04-16T02:20:16.324Z,21
2024-04-16T02:25:16.533Z,21
2024-04-16T02:30:19.700Z,21
2024-04-16T02:35:18.758Z,21
2024-04-16T02:40:16.322Z,21
2024-04-16T02:45:14.459Z,20.9
2024-04-16T02:50:14.514Z,20.9
2024-04-16T02:55:16.693Z,20.9
2024-04-16T03:00:13.804Z,20.9
2024-04-16T03:05:17.701Z,20.9
2024-04-16T03:10:22.810Z,20.9
2024-04-16T03:15:13.870Z,20.9
2024-04-16T03:20:16.522Z,20.8
2024-04-16T03:25:18.939Z,20.8
2024-04-16T03:30:19.993Z,20.8
2024-04-16T03:35:15.883Z,20.8
2024-04-16T03:40:20.378Z,20.8
2024-04-16T03:45:24.338Z,20.7
2024-04-16T03:50:20.449Z,20.8
2024-04-16T03:55:16.704Z,20.7
2024-04-16T04:00:15.879Z,20.7
2024-04-16T04:05:24.849Z,20.7
2024-04-16T04:10:16.138Z,20.7
2024-04-16T04:15:20.177Z,20.7
2024-04-16T04:20:18.244Z,20.6
2024-04-16T04:25:16.703Z,20.6
2024-04-16T04:30:15.858Z,20.6
2024-04-16T04:35:13.815Z,20.6
2024-04-16T04:40:14.064Z,20.6
2024-04-16T04:45:24.326Z,20.6
2024-04-16T04:50:16.234Z,20.6
2024-04-16T04:55:16.749Z,20.6
2024-04-16T05:00:21.927Z,20.5
2024-04-16T05:05:18.213Z,20.5
2024-04-16T05:10:20.640Z,20.5
2024-04-16T05:15:17.761Z,20.5
2024-04-16T05:20:15.798Z,20.5
2024-04-16T05:25:18.113Z,20.5
2024-04-16T05:30:16.222Z,20.4
2024-04-16T05:35:15.454Z,20.4
2024-04-16T05:40:19.107Z,20.4
2024-04-16T05:45:20.266Z,20.4
2024-04-16T05:50:18.262Z,20.4
2024-04-16T05:55:18.659Z,20.4
2024-04-16T06:00:22.657Z,20.4
2024-04-16T06:05:22.376Z,20.3
2024-04-16T06:10:14.561Z,20.3
2024-04-16T06:15:16.641Z,20.3
2024-04-16T06:20:20.486Z,20.3
2024-04-16T06:25:22.876Z,20.3
2024-04-16T06:30:16.051Z,20.3
2024-04-16T06:35:22.332Z,20.3
2024-04-16T06:40:16.930Z,20.3
2024-04-16T06:45:16.001Z,20.3
2024-04-16T06:50:17.166Z,20.3
2024-04-16T06:55:20.650Z,20.2
2024-04-16T07:00:15.997Z,20.2
2024-04-16T07:05:20.641Z,20.2
2024-04-16T07:10:19.022Z,20.2
2024-04-16T07:15:14.159Z,20.2
2024-04-16T07:20:14.057Z,20.2
2024-04-16T07:25:20.049Z,20.2
2024-04-16T07:30:16.280Z,20.2
2024-04-16T07:35:22.434Z,20.2
2024-04-16T07:40:22.544Z,20.2
2024-04-16T07:45:18.748Z,20.2
2024-04-16T07:50:17.675Z,20.1
2024-04-16T07:55:20.788Z,20.1
2024-04-16T08:00:19.937Z,20.1
2024-04-16T08:05:24.665Z,20.1
2024-04-16T08:10:16.774Z,20.1
2024-04-16T08:15:17.875Z,20.1
2024-04-16T08:20:29.784Z,20.1
2024-04-16T08:25:13.865Z,20.1
2024-04-16T08:30:13.985Z,20.1
2024-04-16T08:35:19.346Z,20.1
2024-04-16T08:40:16.505Z,20
2024-04-16T08:45:23.149Z,20
2024-04-16T08:50:18.528Z,20
2024-04-16T08:55:20.764Z,20
2024-04-16T09:00:17.864Z,20
2024-04-16T09:05:15.132Z,20
2024-04-16T09:10:20.459Z,20
2024-04-16T09:15:16.598Z,20
2024-04-16T09:20:15.821Z,19.9
2024-04-16T09:25:15.951Z,19.9
2024-04-16T09:30:20.158Z,19.9
2024-04-16T09:35:16.688Z,19.9
2024-04-16T09:40:16.585Z,19.9
2024-04-16T09:45:21.898Z,19.9
2024-04-16T09:51:08.728Z,19.9
2024-04-16T09:55:19.823Z,19.9
2024-04-16T10:00:14.245Z,19.9
2024-04-16T10:05:18.774Z,19.9
2024-04-16T10:10:13.881Z,19.9
2024-04-16T10:15:15.146Z,19.9
2024-04-16T10:20:16.600Z,19.9
2024-04-16T10:25:21.828Z,19.9
2024-04-16T10:30:16.834Z,19.8
2024-04-16T10:35:24.423Z,19.9
2024-04-16T10:40:26.518Z,19.8
2024-04-16T10:45:14.691Z,19.8
2024-04-16T10:50:16.589Z,19.8
2024-04-16T10:55:14.797Z,19.8
2024-04-16T11:00:27.560Z,19.8
2024-04-16T11:05:14.607Z,19.8
2024-04-16T11:10:21.695Z,19.8
2024-04-16T11:15:13.992Z,19.8
2024-04-16T11:20:14.021Z,19.8
2024-04-16T11:25:15.911Z,19.8
2024-04-16T11:30:14.738Z,19.8
2024-04-16T11:35:16.545Z,19.8
2024-04-16T11:40:16.658Z,19.8
2024-04-16T11:45:16.112Z,19.8
2024-04-16T11:50:24.571Z,19.8
2024-04-16T11:55:14.488Z,19.8
2024-04-16T12:00:18.461Z,19.8
2024-04-16T12:05:23.394Z,19.8
2024-04-16T12:10:13.732Z,19.8
2024-04-16T12:15:17.868Z,19.8
2024-04-16T12:20:16.221Z,19.8
2024-04-16T12:25:18.230Z,19.8
2024-04-16T12:30:20.384Z,19.8
2024-04-16T12:35:14.449Z,19.8
2024-04-16T12:40:14.451Z,19.8
2024-04-16T12:45:18.452Z,19.8
2024-04-16T12:50:19.694Z,19.8
2024-04-16T12:55:13.709Z,19.8
2024-04-16T13:00:13.861Z,19.8
2024-04-16T13:05:18.176Z,19.8
2024-04-16T13:10:20.164Z,19.8
2024-04-16T13:15:18.259Z,19.8
2024-04-16T13:20:17.748Z,19.9
2024-04-16T13:25:21.744Z,19.9
2024-04-16T13:30:13.747Z,19.8
2024-04-16T13:35:14.850Z,19.9
2024-04-16T13:40:17.790Z,19.9
2024-04-16T13:45:17.781Z,19.9
2024-04-16T13:50:18.436Z,19.9
2024-04-16T13:55:20.405Z,19.9
2024-04-16T14:00:20.453Z,19.9
2024-04-16T14:05:17.980Z,19.9
2024-04-16T14:10:19.961Z,19.9
2024-04-16T14:15:22.110Z,19.9
2024-04-16T14:20:14.270Z,19.9
2024-04-16T14:25:18.031Z,19.9
2024-04-16T14:30:20.196Z,19.9
2024-04-16T14:35:16.040Z,19.9
2024-04-16T14:40:20.043Z,19.9
2024-04-16T14:45:21.799Z,19.9
2024-04-16T14:50:14.560Z,19.8
2024-04-16T14:55:16.426Z,19.8
2024-04-16T15:00:14.535Z,19.8
2024-04-16T15:05:18.470Z,19.8
2024-04-16T15:10:24.318Z,19.8
2024-04-16T15:15:17.921Z,19.8
2024-04-16T15:20:14.613Z,19.8
2024-04-16T15:25:22.530Z,19.7
2024-04-16T15:30:18.631Z,19.7
2024-04-16T15:35:16.510Z,19.7
2024-04-16T15:40:51.720Z,19.7
2024-04-16T15:45:18.168Z,19.7
2024-04-16T15:50:17.828Z,19.7
2024-04-16T15:55:13.771Z,19.7
2024-04-16T16:00:15.832Z,19.7
2024-04-16T16:05:14.468Z,19.7
2024-04-16T16:10:27.706Z,19.7
2024-04-16T16:15:13.658Z,19.7
2024-04-16T16:20:20.057Z,19.7
2024-04-16T16:25:23.810Z,19.7
2024-04-16T16:30:15.802Z,19.6
2024-04-16T16:35:18.096Z,19.6
2024-04-16T16:40:20.195Z,19.6
2024-04-16T16:45:17.100Z,19.6
2024-04-16T16:50:14.046Z,19.6
2024-04-16T16:55:14.097Z,19.6
2024-04-16T17:00:14.150Z,19.5
2024-04-16T17:05:22.496Z,19.5
2024-04-16T17:10:14.486Z,19.5
2024-04-16T17:15:14.785Z,19.5
2024-04-16T17:20:17.715Z,19.5
2024-04-16T17:25:15.699Z,19.5
2024-04-16T17:30:17.805Z,19.5
2024-04-16T17:35:16.121Z,19.5
2024-04-16T17:40:20.032Z,19.5
2024-04-16T17:45:16.293Z,19.4
2024-04-16T17:50:14.546Z,19.4
2024-04-16T17:55:16.594Z,19.4
2024-04-16T18:00:16.592Z,19.4
2024-04-16T18:05:14.758Z,19.4
2024-04-16T18:10:19.871Z,19.4
2024-04-16T18:15:15.932Z,19.3
2024-04-16T18:20:15.822Z,19.3
2024-04-16T18:25:15.894Z,19.3
2024-04-16T18:30:13.844Z,19.3
2024-04-16T18:35:16.004Z,19.3
2024-04-16T18:40:19.902Z,19.3
2024-04-16T18:45:19.979Z,19.2
2024-04-16T18:50:14.204Z,19.2
2024-04-16T18:55:16.298Z,19.2
2024-04-16T19:00:14.533Z,19.2
2024-04-16T19:05:18.846Z,19.2
2024-04-16T19:10:16.168Z,19.2
2024-04-16T19:15:20.302Z,19.2
2024-04-16T19:20:13.999Z,19.1
2024-04-16T19:25:18.008Z,19.1
2024-04-16T19:30:26.092Z,19.1
2024-04-16T19:35:24.116Z,19.1
2024-04-16T19:40:18.111Z,19.1
2024-04-16T19:45:22.091Z,19.1
2024-04-16T19:50:18.146Z,19.1
2024-04-16T19:55:22.091Z,19.1
2024-04-16T20:00:16.125Z,19.1
2024-04-16T20:05:18.417Z,19
2024-04-16T20:10:14.334Z,19
2024-04-16T20:15:14.280Z,19
2024-04-16T20:20:17.980Z,19
2024-04-16T20:25:17.726Z,19
2024-04-16T20:30:14.248Z,19
2024-04-16T20:35:16.229Z,19
2024-04-16T20:40:26.401Z,19
2024-04-16T20:45:24.587Z,18.9
2024-04-16T20:50:22.470Z,18.9
2024-04-16T20:55:22.427Z,18.9
2024-04-16T21:00:14.513Z,18.9
2024-04-16T21:05:15.626Z,18.9
2024-04-16T21:10:14.634Z,18.9
2024-04-16T21:15:14.615Z,18.8
2024-04-16T21:20:16.643Z,18.8
2024-04-16T21:25:16.645Z,18.8
2024-04-16T21:30:15.714Z,18.8
2024-04-16T21:35:17.282Z,18.8
2024-04-16T21:40:18.281Z,18.8
2024-04-16T21:45:16.375Z,18.8
2024-04-16T21:50:16.539Z,18.8
2024-04-16T21:55:24.456Z,18.8
2024-04-16T22:00:16.827Z,18.7
2024-04-16T22:05:20.012Z,18.7
2024-04-16T22:10:14.207Z,18.7
2024-04-16T22:15:14.301Z,18.7
2024-04-16T22:20:14.742Z,18.7
2024-04-16T22:25:15.752Z,18.7
2024-04-16T22:30:17.933Z,18.6
2024-04-16T22:35:16.486Z,18.7
2024-04-16T22:40:14.380Z,18.6
2024-04-16T22:45:17.428Z,18.6
2024-04-16T22:50:21.819Z,18.6
2024-04-16T22:55:19.800Z,18.6
2024-04-16T23:00:13.842Z,18.6
2024-04-16T23:05:15.229Z,18.6
2024-04-16T23:10:16.498Z,18.6
2024-04-16T23:15:16.508Z,18.5
2024-04-16T23:20:14.148Z,18.5
2024-04-16T23:25:18.104Z,18.5
2024-04-16T23:30:20.188Z,18.5
2024-04-16T23:35:20.520Z,18.5
2024-04-16T23:40:22.630Z,18.5
2024-04-16T23:45:14.586Z,18.5
2024-04-16T23:50:16.305Z,18.5
2024-04-16T23:55:20.310Z,18.5
